Time;durP1;ratioP1;P1;durP2;ratioP2;P2;SDS_P1;SDS_P2;PMS_P1;PMS_P2;Temp;Humidity;BMP_temperature;BMP_pressure;BME280_temperature;BME280_humidity;BME280_pressure;Samples;Min_cycle;Max_cycle;Signal;HPM_P1;HPM_P2
2021/04/22 00:02:13;;;;;;;23.02;5.85;;;5.80;99.90;;;;;;5088700;28;20049;-81
2021/04/22 00:04:41;;;;;;;14.88;4.32;;;5.80;99.90;;;;;;5088282;28;20059;-81
2021/04/22 00:07:08;;;;;;;17.40;5.55;;;5.70;99.90;;;;;;5087366;28;20055;-82
2021/04/22 00:09:36;;;;;;;11.70;5.43;;;5.70;99.90;;;;;;5088968;28;20532;-81
2021/04/22 00:12:06;;;;;;;20.95;4.85;;;6.00;99.90;;;;;;5070249;28;20044;-82
2021/04/22 00:14:34;;;;;;;13.13;4.35;;;5.70;99.90;;;;;;5077791;28;20500;-82
2021/04/22 00:17:05;;;;;;;12.65;4.18;;;5.70;99.90;;;;;;5086265;28;20052;-82
2021/04/22 00:19:32;;;;;;;18.20;5.30;;;5.70;99.90;;;;;;5089679;28;20067;-82
2021/04/22 00:21:59;;;;;;;18.67;5.35;;;5.60;99.90;;;;;;5091527;28;20049;-81
2021/04/22 00:24:27;;;;;;;15.55;4.97;;;5.60;99.90;;;;;;5080892;28;20044;-81
2021/04/22 00:27:04;;;;;;;19.38;6.07;;;5.60;99.90;;;;;;5089128;28;20067;-82
2021/04/22 00:29:31;;;;;;;28.38;6.95;;;5.60;99.90;;;;;;5071558;28;20055;-81
2021/04/22 00:32:02;;;;;;;18.20;5.18;;;5.60;99.90;;;;;;5089013;28;20083;-81
2021/04/22 00:34:29;;;;;;;9.23;4.53;;;5.50;99.90;;;;;;5088448;28;20052;-81
2021/04/22 00:37:06;;;;;;;20.80;6.90;;;5.50;99.90;;;;;;5086454;28;20055;-81
2021/04/22 00:39:33;;;;;;;17.52;4.63;;;5.50;99.90;;;;;;5090772;28;20047;-82
2021/04/22 00:42:00;;;;;;;20.15;5.90;;;5.50;99.90;;;;;;5090731;28;20618;-82
2021/04/22 00:44:28;;;;;;;18.33;5.28;;;5.50;99.90;;;;;;5074841;28;20058;-81
2021/04/22 00:46:56;;;;;;;25.02;5.75;;;5.50;99.90;;;;;;5090606;28;20040;-81
2021/04/22 00:49:25;;;;;;;30.05;5.80;;;5.50;99.90;;;;;;5091012;28;20052;-82
2021/04/22 00:51:53;;;;;;;19.33;5.63;;;5.50;99.90;;;;;;5074582;28;20415;-82
2021/04/22 00:54:22;;;;;;;19.60;5.15;;;5.40;99.90;;;;;;5103232;28;20055;-81
2021/04/22 00:56:50;;;;;;;16.77;4.45;;;5.40;99.90;;;;;;5093653;28;20048;-81
2021/04/22 00:59:20;;;;;;;17.88;5.40;;;5.40;99.90;;;;;;5087579;28;20510;-82
2021/04/22 01:01:47;;;;;;;26.10;7.50;;;5.40;99.90;;;;;;5092460;28;20052;-83
2021/04/22 01:04:15;;;;;;;20.50;7.40;;;5.40;99.90;;;;;;5088512;28;20055;-82
2021/04/22 01:06:42;;;;;;;19.48;5.43;;;5.30;99.90;;;;;;5087417;28;20512;-83
2021/04/22 01:09:14;;;;;;;14.57;4.65;;;6.30;99.90;;;;;;5092001;28;20400;-82
2021/04/22 01:11:42;;;;;;;32.47;5.05;;;5.30;99.90;;;;;;5089809;28;20048;-81
2021/04/22 01:14:10;;;;;;;21.33;5.30;;;5.30;99.90;;;;;;5089667;28;20063;-82
2021/04/22 01:16:37;;;;;;;18.60;5.47;;;5.30;99.90;;;;;;5089076;28;20056;-81
2021/04/22 01:19:05;;;;;;;13.00;4.50;;;5.30;99.90;;;;;;5089867;28;20058;-82
2021/04/22 01:21:33;;;;;;;15.40;5.68;;;5.30;99.90;;;;;;5089411;28;20063;-82
2021/04/22 01:24:01;;;;;;;18.75;5.30;;;5.20;99.90;;;;;;5104625;28;20063;-82
2021/04/22 01:26:28;;;;;;;13.48;4.97;;;5.20;99.90;;;;;;5090489;28;20408;-81
2021/04/22 01:28:55;;;;;;;13.68;5.15;;;5.20;99.90;;;;;;5091502;28;20051;-82
2021/04/22 01:31:24;;;;;;;28.60;4.97;;;5.30;99.90;;;;;;5090344;28;20048;-82
2021/04/22 01:34:03;;;;;;;17.15;5.53;;;5.10;99.90;;;;;;5088243;28;20075;-82
2021/04/22 01:36:32;;;;;;;20.33;5.65;;;5.10;99.90;;;;;;5068978;28;20068;-82
2021/04/22 01:39:01;;;;;;;19.02;5.35;;;5.10;99.90;;;;;;5074348;28;20060;-81
2021/04/22 01:41:29;;;;;;;19.20;7.35;;;5.00;99.90;;;;;;5076997;28;20075;-81
2021/04/22 01:43:56;;;;;;;24.20;5.65;;;5.10;99.90;;;;;;5079074;28;20056;-82
2021/04/22 01:46:24;;;;;;;16.70;5.35;;;4.90;99.90;;;;;;5103196;28;20392;-82
2021/04/22 01:48:52;;;;;;;20.92;6.00;;;5.30;99.90;;;;;;5085886;28;20499;-83
2021/04/22 01:51:21;;;;;;;28.35;7.00;;;4.90;99.90;;;;;;5089103;28;20055;-82
2021/04/22 01:53:49;;;;;;;14.82;4.53;;;4.80;99.90;;;;;;5082929;28;20051;-82
2021/04/22 01:56:17;;;;;;;16.10;5.60;;;4.90;99.90;;;;;;5090827;28;20052;-81
2021/04/22 01:58:45;;;;;;;19.40;5.97;;;4.80;99.90;;;;;;5085265;28;20048;-81
2021/04/22 02:01:13;;;;;;;27.10;6.88;;;4.80;99.90;;;;;;5085744;28;20051;-82
2021/04/22 02:03:41;;;;;;;17.33;5.22;;;4.80;99.90;;;;;;5092537;28;20048;-82
2021/04/22 02:06:09;;;;;;;32.22;7.10;;;4.80;99.90;;;;;;5092137;28;20408;-82
2021/04/22 02:08:37;;;;;;;14.02;5.50;;;4.70;99.90;;;;;;5092096;28;20060;-81
2021/04/22 02:11:05;;;;;;;28.67;5.68;;;4.70;99.90;;;;;;5092116;28;20050;-81
2021/04/22 02:13:33;;;;;;;24.42;7.47;;;4.70;99.90;;;;;;5090114;28;20048;-82
2021/04/22 02:16:01;;;;;;;25.20;5.45;;;4.70;99.90;;;;;;5092739;28;20040;-82
2021/04/22 02:18:28;;;;;;;20.08;5.70;;;4.60;99.90;;;;;;5091029;28;20056;-81
2021/04/22 02:20:56;;;;;;;18.55;5.95;;;4.80;99.90;;;;;;5095462;28;20051;-82
2021/04/22 02:23:25;;;;;;;19.13;6.47;;;6.00;99.90;;;;;;5108666;28;20055;-81
2021/04/22 02:25:52;;;;;;;14.65;5.72;;;4.60;99.90;;;;;;5092316;28;20055;-82
2021/04/22 02:28:20;;;;;;;18.83;6.10;;;4.60;99.90;;;;;;5092532;28;20052;-82
2021/04/22 02:30:47;;;;;;;24.48;7.13;;;4.60;99.90;;;;;;5077656;28;20044;-81
2021/04/22 02:33:18;;;;;;;15.90;4.78;;;4.60;99.90;;;;;;5090101;28;20047;-81
2021/04/22 02:35:47;;;;;;;16.27;4.43;;;4.60;99.90;;;;;;5090213;28;20064;-81
2021/04/22 02:38:16;;;;;;;19.00;5.65;;;4.60;99.90;;;;;;5070137;28;20628;-81
2021/04/22 02:40:45;;;;;;;16.58;5.65;;;4.50;99.90;;;;;;5085507;28;20495;-81
2021/04/22 02:43:15;;;;;;;19.70;4.85;;;4.50;99.90;;;;;;5090969;28;20063;-81
2021/04/22 02:45:46;;;;;;;17.60;5.65;;;4.50;99.90;;;;;;5084654;28;20059;-82
2021/04/22 02:48:14;;;;;;;31.50;7.95;;;4.50;99.90;;;;;;5084796;28;20070;-81
2021/04/22 02:50:44;;;;;;;19.55;6.13;;;4.50;99.90;;;;;;5057120;28;20048;-82
2021/04/22 02:53:13;;;;;;;21.15;7.05;;;4.50;99.90;;;;;;5090369;28;20686;-81
2021/04/22 02:55:42;;;;;;;30.63;7.88;;;4.40;99.90;;;;;;5090855;28;20060;-82
2021/04/22 02:58:23;;;;;;;20.97;5.77;;;4.40;99.90;;;;;;5081656;28;20044;-81
2021/04/22 03:00:51;;;;;;;20.70;5.97;;;5.30;99.90;;;;;;5084515;28;20492;-82
2021/04/22 03:03:19;;;;;;;23.45;6.15;;;4.60;99.90;;;;;;5089098;28;20083;-81
2021/04/22 03:05:47;;;;;;;14.30;5.18;;;4.40;99.90;;;;;;5084814;28;20044;-81
2021/04/22 03:08:15;;;;;;;31.75;7.07;;;4.40;99.90;;;;;;5089712;28;20055;-82
2021/04/22 03:10:43;;;;;;;22.17;6.32;;;4.40;99.90;;;;;;5091152;28;20048;-81
2021/04/22 03:13:11;;;;;;;19.10;6.72;;;6.30;99.90;;;;;;5075986;28;20129;-81
2021/04/22 03:15:39;;;;;;;18.50;6.57;;;4.40;99.90;;;;;;5091765;28;20055;-82
2021/04/22 03:18:10;;;;;;;20.33;6.28;;;4.90;99.90;;;;;;5090831;28;20068;-81
2021/04/22 03:20:39;;;;;;;21.88;5.88;;;4.30;99.90;;;;;;5091973;28;20062;-82
2021/04/22 03:23:07;;;;;;;18.88;6.63;;;4.20;99.90;;;;;;5095972;28;20059;-81
2021/04/22 03:25:34;;;;;;;42.45;8.10;;;4.20;99.90;;;;;;5089840;28;20051;-83
2021/04/22 03:28:02;;;;;;;19.15;6.15;;;5.20;99.90;;;;;;5089520;28;20056;-82
2021/04/22 03:30:32;;;;;;;22.05;7.05;;;4.20;99.90;;;;;;5091308;28;20052;-81
2021/04/22 03:32:59;;;;;;;19.42;4.85;;;4.20;99.90;;;;;;5093105;28;20044;-82
2021/04/22 03:35:27;;;;;;;17.67;6.90;;;4.20;99.90;;;;;;5092990;28;20056;-82
2021/04/22 03:37:55;;;;;;;18.80;5.38;;;4.90;99.90;;;;;;5087796;28;20036;-82
2021/04/22 03:40:24;;;;;;;28.33;7.38;;;4.40;99.90;;;;;;5072583;28;20052;-82
2021/04/22 03:42:53;;;;;;;22.92;5.63;;;4.10;99.90;;;;;;5086360;28;20040;-82
2021/04/22 03:45:21;;;;;;;15.73;6.80;;;4.30;99.90;;;;;;5091048;28;20063;-81
2021/04/22 03:47:49;;;;;;;18.80;5.72;;;4.10;99.90;;;;;;5090254;28;20058;-82
2021/04/22 03:50:18;;;;;;;25.35;7.97;;;5.10;99.90;;;;;;5073260;28;20051;-82
2021/04/22 03:52:48;;;;;;;18.65;5.38;;;4.40;99.90;;;;;;5097871;28;20056;-82
2021/04/22 03:55:17;;;;;;;17.27;6.28;;;4.10;99.90;;;;;;5091095;28;20066;-82
2021/04/22 03:57:45;;;;;;;27.17;9.90;;;4.20;99.90;;;;;;5088383;28;20047;-83
2021/04/22 04:00:15;;;;;;;31.85;8.77;;;4.10;99.90;;;;;;5082816;28;20056;-81
2021/04/22 04:02:43;;;;;;;19.70;6.20;;;4.00;99.90;;;;;;5088628;28;20052;-82
2021/04/22 04:05:11;;;;;;;28.92;9.60;;;4.00;99.90;;;;;;5086812;28;20063;-81
2021/04/22 04:07:38;;;;;;;30.98;6.85;;;4.00;99.90;;;;;;5087368;28;20044;-83
2021/04/22 04:10:07;;;;;;;29.75;6.00;;;5.10;99.90;;;;;;5090479;28;20044;-83
2021/04/22 04:12:34;;;;;;;20.40;7.03;;;4.00;99.90;;;;;;5087813;28;20044;-82
2021/04/22 04:15:03;;;;;;;21.75;5.30;;;4.60;99.90;;;;;;5092346;28;20470;-83
2021/04/22 04:17:31;;;;;;;24.52;9.57;;;3.90;99.90;;;;;;5091590;28;20048;-81
2021/04/22 04:19:58;;;;;;;30.85;7.80;;;4.50;99.90;;;;;;5092550;28;20052;-81
2021/04/22 04:22:26;;;;;;;17.20;5.85;;;4.10;99.90;;;;;;5096780;28;20379;-82
2021/04/22 04:24:53;;;;;;;22.38;7.68;;;4.30;99.90;;;;;;5093321;28;20070;-81
2021/04/22 04:27:20;;;;;;;25.55;8.45;;;3.90;99.90;;;;;;5091384;28;20407;-82
2021/04/22 04:29:47;;;;;;;24.73;8.30;;;3.90;99.90;;;;;;5093166;28;20090;-82
2021/04/22 04:32:15;;;;;;;30.42;7.50;;;3.80;99.90;;;;;;5091036;28;20055;-81
2021/04/22 04:34:42;;;;;;;26.73;5.07;;;3.80;99.90;;;;;;5086798;28;20060;-83
2021/04/22 04:37:09;;;;;;;26.40;6.57;;;3.80;99.90;;;;;;5088917;28;20059;-82
2021/04/22 04:39:37;;;;;;;23.52;6.25;;;3.80;99.90;;;;;;5079624;28;20048;-82
2021/04/22 04:42:05;;;;;;;19.05;6.72;;;4.70;99.90;;;;;;5095162;28;20055;-82
2021/04/22 04:44:32;;;;;;;36.08;12.25;;;3.80;99.90;;;;;;5093700;28;20044;-82
2021/04/22 04:46:59;;;;;;;23.02;7.30;;;4.90;99.90;;;;;;5098210;28;20044;-81
2021/04/22 04:49:27;;;;;;;21.10;7.13;;;3.80;99.90;;;;;;5094811;28;20051;-82
2021/04/22 04:51:54;;;;;;;24.40;10.40;;;3.80;99.90;;;;;;5090926;28;20048;-82
2021/04/22 04:54:21;;;;;;;20.20;7.15;;;3.70;99.90;;;;;;5097227;28;20070;-81
2021/04/22 04:56:49;;;;;;;25.45;7.32;;;4.20;99.90;;;;;;5090420;28;20048;-81
2021/04/22 04:59:16;;;;;;;34.85;7.50;;;5.40;99.90;;;;;;5076747;28;20086;-83
2021/04/22 05:01:43;;;;;;;39.75;9.90;;;3.70;99.90;;;;;;5089721;28;20063;-82
2021/04/22 05:04:11;;;;;;;30.17;9.27;;;3.70;99.90;;;;;;5080715;28;20052;-82
2021/04/22 05:06:39;;;;;;;20.85;7.60;;;3.60;99.90;;;;;;5082832;28;20055;-82
2021/04/22 05:09:07;;;;;;;23.90;7.50;;;3.60;99.90;;;;;;5077079;28;20056;-82
2021/04/22 05:11:34;;;;;;;22.60;9.63;;;3.60;99.90;;;;;;5082378;28;20052;-82
2021/04/22 05:14:02;;;;;;;21.85;6.88;;;4.40;99.90;;;;;;5067734;28;20065;-81
2021/04/22 05:16:29;;;;;;;20.67;9.07;;;3.60;99.90;;;;;;5069439;28;20052;-82
2021/04/22 05:18:56;;;;;;;23.52;5.75;;;3.60;99.90;;;;;;5060826;28;20096;-81
2021/04/22 05:21:24;;;;;;;29.02;7.32;;;3.60;99.90;;;;;;5075832;28;20054;-82
2021/04/22 05:23:51;;;;;;;16.85;6.10;;;3.60;99.90;;;;;;5075878;28;20044;-82
2021/04/22 05:26:19;;;;;;;26.55;6.93;;;3.70;99.90;;;;;;5088924;28;20055;-82
2021/04/22 05:28:47;;;;;;;17.67;5.22;;;3.90;99.90;;;;;;5079770;28;20048;-82
2021/04/22 05:31:16;;;;;;;28.25;8.52;;;3.60;99.90;;;;;;5069135;28;20527;-82
2021/04/22 05:33:44;;;;;;;23.73;7.05;;;3.70;99.90;;;;;;5069076;28;20499;-82
2021/04/22 05:36:11;;;;;;;20.13;7.00;;;3.70;99.90;;;;;;5075457;28;20055;-82
2021/04/22 05:38:39;;;;;;;26.38;7.07;;;5.40;99.90;;;;;;5070165;28;20041;-82
2021/04/22 05:41:07;;;;;;;20.98;6.63;;;3.70;99.90;;;;;;5079019;28;20056;-81
2021/04/22 05:43:35;;;;;;;24.27;5.45;;;3.80;99.90;;;;;;5075588;28;20514;-82
2021/04/22 05:46:02;;;;;;;12.25;7.07;;;3.80;99.90;;;;;;5082006;28;20064;-82
2021/04/22 05:48:29;;;;;;;27.67;8.93;;;3.90;99.90;;;;;;5074249;28;20044;-83
2021/04/22 05:50:57;;;;;;;25.73;7.55;;;4.80;99.90;;;;;;5071393;28;20064;-82
2021/04/22 05:53:24;;;;;;;35.70;8.45;;;3.90;99.90;;;;;;5059092;28;20045;-82
2021/04/22 05:55:51;;;;;;;14.70;6.00;;;3.90;99.90;;;;;;5074705;28;20066;-81
2021/04/22 05:58:18;;;;;;;43.47;7.05;;;4.00;99.90;;;;;;5078167;28;20048;-83
2021/04/22 06:00:45;;;;;;;27.38;6.13;;;4.10;99.90;;;;;;5075192;28;20044;-83
2021/04/22 06:03:13;;;;;;;24.08;6.05;;;4.10;99.90;;;;;;5077100;28;20049;-82
2021/04/22 06:05:41;;;;;;;25.23;8.20;;;4.10;99.90;;;;;;5078346;28;20540;-82
2021/04/22 06:08:11;;;;;;;19.48;6.18;;;4.20;99.90;;;;;;5084272;28;20775;-82
2021/04/22 06:10:38;;;;;;;36.75;12.68;;;4.30;99.90;;;;;;5068510;28;20051;-83
2021/04/22 06:13:08;;;;;;;22.98;6.57;;;4.30;99.90;;;;;;5070375;28;20056;-84
2021/04/22 06:15:35;;;;;;;32.58;7.95;;;4.40;99.90;;;;;;5066831;28;20415;-84
2021/04/22 06:18:04;;;;;;;22.60;6.10;;;4.40;99.90;;;;;;5067051;28;20510;-83
2021/04/22 06:20:31;;;;;;;28.08;7.47;;;4.50;99.90;;;;;;5069557;28;20060;-83
2021/04/22 06:23:11;;;;;;;25.25;7.07;;;6.60;99.90;;;;;;5091593;28;20043;-83
2021/04/22 06:25:38;;;;;;;32.03;7.55;;;4.70;99.90;;;;;;5089464;28;20393;-83
2021/04/22 06:28:05;;;;;;;26.38;7.70;;;4.80;99.90;;;;;;5076475;28;20049;-83
2021/04/22 06:30:33;;;;;;;22.58;7.75;;;4.80;99.90;;;;;;5083486;28;20511;-90
2021/04/22 06:33:01;;;;;;;29.52;8.57;;;4.90;99.90;;;;;;5070781;28;20055;-83
2021/04/22 06:35:28;;;;;;;27.48;7.50;;;5.50;99.90;;;;;;5075940;28;20059;-81
2021/04/22 06:37:56;;;;;;;18.85;6.47;;;5.00;99.90;;;;;;5064030;28;20036;-82
2021/04/22 06:40:24;;;;;;;30.83;8.45;;;5.10;99.90;;;;;;5079460;28;20546;-83
2021/04/22 06:42:53;;;;;;;28.42;8.48;;;5.20;99.90;;;;;;5076546;28;20052;-83
2021/04/22 06:45:22;;;;;;;33.75;9.23;;;5.20;99.90;;;;;;5079178;28;20048;-85
2021/04/22 06:47:51;;;;;;;27.02;7.15;;;5.30;99.90;;;;;;5086443;28;20047;-89
2021/04/22 06:50:22;;;;;;;30.70;10.00;;;5.40;99.90;;;;;;5075699;28;20126;-89
2021/04/22 06:52:50;;;;;;;50.13;9.60;;;6.60;99.90;;;;;;5081714;28;20063;-89
2021/04/22 06:55:22;;;;;;;20.42;6.63;;;5.60;99.90;;;;;;5059835;28;20060;-90
2021/04/22 06:57:59;;;;;;;27.17;10.45;;;6.30;99.90;;;;;;5066348;28;20056;-90
2021/04/22 07:00:29;;;;;;;22.63;8.38;;;5.80;99.90;;;;;;5088906;28;20052;-87
2021/04/22 07:02:59;;;;;;;32.78;8.65;;;7.30;99.90;;;;;;5066360;28;20047;-88
2021/04/22 07:05:27;;;;;;;21.92;7.78;;;6.00;99.90;;;;;;5072314;28;20068;-85
2021/04/22 07:07:55;;;;;;;18.05;7.22;;;6.10;99.90;;;;;;5091467;28;20044;-88
2021/04/22 07:10:23;;;;;;;23.58;8.02;;;6.10;99.90;;;;;;5079031;28;20048;-86
2021/04/22 07:12:52;;;;;;;16.60;7.47;;;6.20;99.90;;;;;;5074132;28;20059;-88
2021/04/22 07:15:19;;;;;;;31.02;11.82;;;6.30;99.90;;;;;;5083578;28;20066;-87
2021/04/22 07:17:51;;;;;;;27.30;10.05;;;6.40;99.90;;;;;;5086397;28;20051;-87
2021/04/22 07:20:22;;;;;;;;;;;6.50;99.90;;;;;;5094818;28;20076;-87
2021/04/22 07:22:59;;;;;;;16.38;5.88;;;6.50;99.90;;;;;;5104269;28;19927;-88
2021/04/22 07:25:32;;;;;;;38.10;10.18;;;6.60;99.90;;;;;;5083330;28;20051;-88
2021/04/22 07:28:02;;;;;;;23.60;8.52;;;6.60;99.90;;;;;;5071230;28;20059;-86
2021/04/22 07:30:36;;;;;;;23.88;7.35;;;6.60;99.90;;;;;;5069013;28;20048;-87
2021/04/22 07:33:06;;;;;;;37.75;8.68;;;6.80;99.90;;;;;;5077118;28;20411;-86
2021/04/22 07:35:35;;;;;;;25.63;7.72;;;6.80;99.90;;;;;;5076973;28;20057;-87
2021/04/22 07:38:08;;;;;;;29.90;7.13;;;6.80;99.90;;;;;;5092950;28;20517;-87
2021/04/22 07:40:35;;;;;;;21.92;7.53;;;6.90;99.90;;;;;;5055348;28;20074;-87
2021/04/22 07:43:02;;;;;;;42.30;12.18;;;7.50;99.90;;;;;;5072091;28;20521;-87
2021/04/22 07:45:34;;;;;;;22.35;8.27;;;8.00;99.90;;;;;;5072271;28;20058;-88
2021/04/22 07:48:06;;;;;;;27.80;7.45;;;7.10;99.90;;;;;;5073331;28;20051;-87
2021/04/22 07:50:35;;;;;;;33.90;8.93;;;7.10;99.90;;;;;;5047088;28;20060;-87
2021/04/22 07:53:06;;;;;;;32.15;7.93;;;7.40;99.90;;;;;;5089784;28;20052;-87
2021/04/22 07:55:44;;;;;;;41.53;10.45;;;7.20;99.90;;;;;;5095593;28;20052;-89
2021/04/22 07:58:14;;;;;;;35.13;8.20;;;7.30;99.90;;;;;;5075737;28;20499;-89
2021/04/22 08:00:43;;;;;;;27.67;6.20;;;7.40;99.90;;;;;;5069919;28;20052;-89
2021/04/22 08:03:13;;;;;;;19.75;5.00;;;7.50;99.90;;;;;;5063736;28;20402;-89
2021/04/22 08:05:46;;;;;;;28.35;7.35;;;7.60;99.90;;;;;;5080024;28;20438;-89
2021/04/22 08:08:14;;;;;;;11.27;5.40;;;7.80;99.90;;;;;;5082558;28;20063;-89
2021/04/22 08:10:46;;;;;;;21.60;7.63;;;7.90;99.90;;;;;;5087608;28;20048;-90
2021/04/22 08:13:17;;;;;;;21.38;5.70;;;8.00;99.90;;;;;;5089008;28;20418;-89
2021/04/22 08:15:51;;;;;;;28.45;6.32;;;8.10;99.90;;;;;;5091578;28;20051;-90
2021/04/22 08:18:26;;;;;;;27.50;6.65;;;8.70;99.90;;;;;;5083775;28;20144;-90
2021/04/22 08:20:57;;;;;;;29.17;7.28;;;8.20;99.90;;;;;;5065919;28;20053;-90
2021/04/22 08:23:28;;;;;;;20.60;5.32;;;8.30;99.90;;;;;;5093990;28;20047;-89
2021/04/22 08:25:58;;;;;;;13.65;5.47;;;8.70;99.90;;;;;;5084836;28;20055;-89
2021/04/22 08:28:27;;;;;;;17.83;8.02;;;8.50;99.90;;;;;;5096546;28;20048;-90
2021/04/22 08:31:00;;;;;;;19.85;6.05;;;8.80;99.90;;;;;;5068595;28;20056;-89
2021/04/22 08:33:35;;;;;;;14.85;5.38;;;8.70;99.90;;;;;;5082885;28;20044;-88
2021/04/22 08:36:05;;;;;;;13.50;4.40;;;9.80;99.90;;;;;;5090925;28;20056;-89
2021/04/22 08:38:34;;;;;;;17.35;7.20;;;8.90;99.90;;;;;;5075019;28;20364;-86
2021/04/22 08:41:02;;;;;;;15.15;5.28;;;9.10;99.90;;;;;;5090232;28;20055;-89
2021/04/22 08:43:37;;;;;;;20.40;4.63;;;9.10;99.90;;;;;;5101251;28;20049;-89
2021/04/22 08:46:07;;;;;;;23.92;5.38;;;9.20;99.90;;;;;;5102516;28;20037;-89
2021/04/22 08:48:36;;;;;;;11.82;4.68;;;9.20;99.90;;;;;;5063207;28;20037;-88
2021/04/22 08:51:05;;;;;;;12.32;4.70;;;9.20;99.90;;;;;;5086427;28;20053;-87
2021/04/22 08:53:40;;;;;;;16.38;5.88;;;9.30;99.90;;;;;;5101146;28;20052;-89
2021/04/22 08:56:08;;;;;;;23.15;7.25;;;9.30;99.90;;;;;;5062785;28;20052;-88
2021/04/22 08:58:36;;;;;;;18.48;6.43;;;9.50;99.90;;;;;;5102392;28;20037;-88
2021/04/22 09:01:12;;;;;;;19.58;6.55;;;9.50;99.90;;;;;;5088817;28;20048;-90
2021/04/22 09:03:41;;;;;;;17.00;4.38;;;9.50;99.90;;;;;;5087426;28;20047;-89
2021/04/22 09:06:10;;;;;;;15.65;4.88;;;9.60;99.90;;;;;;5098842;28;20060;-90
2021/04/22 09:08:51;;;;;;;17.88;5.18;;;9.60;99.90;;;;;;5086002;28;20047;-92
2021/04/22 09:11:25;;;;;;;24.85;5.07;;;9.70;99.90;;;;;;5087420;28;20066;-90
2021/04/22 09:13:55;;;;;;;17.80;5.60;;;9.70;99.90;;;;;;5093784;28;20048;-90
2021/04/22 09:16:28;;;;;;;23.77;5.60;;;9.80;99.90;;;;;;5080389;28;20050;-91
2021/04/22 09:19:19;;;;;;;20.20;5.38;;;9.80;99.90;;;;;;5096917;28;20037;-91
2021/04/22 09:21:56;;;;;;;11.88;3.97;;;10.00;99.90;;;;;;5110625;28;20032;-89
2021/04/22 09:24:26;;;;;;;15.68;5.13;;;10.00;99.90;;;;;;5094383;28;20061;-91
2021/04/22 09:26:58;;;;;;;25.33;6.82;;;10.10;99.90;;;;;;5068408;28;20059;-89
2021/04/22 09:29:36;;;;;;;14.07;3.78;;;10.20;99.90;;;;;;5089467;28;20049;-91
2021/04/22 09:32:16;;;;;;;18.77;5.20;;;10.20;99.90;;;;;;5077925;28;20052;-94
2021/04/22 09:35:05;;;;;;;15.95;3.67;;;10.20;99.90;;;;;;5070908;28;20513;-92
2021/04/22 09:38:23;;;;;;;14.43;4.75;;;10.20;99.90;;;;;;5093709;28;20048;-88
2021/04/22 09:40:52;;;;;;;15.43;5.43;;;10.20;99.90;;;;;;5104862;28;20067;-90
2021/04/22 09:43:20;;;;;;;15.52;4.40;;;10.30;99.90;;;;;;5081279;28;20063;-92
2021/04/22 09:45:51;;;;;;;12.85;4.80;;;10.40;99.90;;;;;;5097518;28;20028;-90
2021/04/22 09:48:28;;;;;;;23.95;6.28;;;10.50;99.90;;;;;;5096593;28;20035;-88
2021/04/22 09:50:58;;;;;;;29.05;5.35;;;10.50;99.90;;;;;;5068087;28;20040;-88
2021/04/22 09:53:27;;;;;;;14.85;5.13;;;10.60;99.90;;;;;;5116396;28;20039;-92
2021/04/22 09:56:08;;;;;;;13.38;3.60;;;10.60;99.90;;;;;;5093815;28;20036;-91
2021/04/22 09:58:38;;;;;;;14.75;4.28;;;10.80;99.90;;;;;;5074456;28;20040;-89
2021/04/22 10:01:07;;;;;;;22.77;5.15;;;10.80;99.90;;;;;;5096171;28;20078;-90
2021/04/22 10:03:34;;;;;;;15.52;4.45;;;10.80;99.90;;;;;;5094620;28;20040;-91
2021/04/22 10:06:04;;;;;;;21.08;4.38;;;10.80;99.90;;;;;;5089367;28;20067;-93
2021/04/22 10:08:31;;;;;;;15.38;4.10;;;10.90;99.90;;;;;;5097700;28;20048;-92
2021/04/22 10:11:08;;;;;;;19.55;5.63;;;11.30;99.90;;;;;;5094634;28;20051;-89
2021/04/22 10:13:48;;;;;;;15.38;4.50;;;11.10;99.90;;;;;;5080787;28;20159;-91
2021/04/22 10:16:32;;;;;;;18.98;4.68;;;11.20;99.90;;;;;;5074928;28;20036;-88
2021/04/22 10:19:13;;;;;;;16.27;4.30;;;11.30;99.90;;;;;;5089665;28;20049;-90
2021/04/22 10:21:43;;;;;;;17.98;5.55;;;11.40;99.90;;;;;;5073176;28;20060;-88
2021/04/22 10:24:15;;;;;;;17.73;3.63;;;11.20;99.90;;;;;;5062995;28;20056;-89
2021/04/22 10:26:44;;;;;;;23.42;4.72;;;11.60;99.90;;;;;;5076567;28;20504;-89
2021/04/22 10:29:12;;;;;;;23.02;4.28;;;11.60;99.90;;;;;;5080129;28;20062;-90
2021/04/22 10:31:41;;;;;;;21.70;4.53;;;11.50;99.80;;;;;;5068264;28;20052;-89
2021/04/22 10:34:11;;;;;;;17.10;4.60;;;10.70;99.30;;;;;;5066809;28;20279;-90
2021/04/22 10:36:39;;;;;;;15.50;5.47;;;11.60;98.70;;;;;;5073024;28;20086;-91
2021/04/22 10:39:11;;;;;;;22.45;7.43;;;11.60;99.20;;;;;;5062181;28;20127;-88
2021/04/22 10:41:44;;;;;;;18.45;4.55;;;11.70;98.90;;;;;;5077044;28;20057;-88
2021/04/22 10:44:11;;;;;;;15.85;4.60;;;11.70;98.40;;;;;;5075849;28;20047;-89
2021/04/22 10:46:52;;;;;;;15.18;5.38;;;11.80;98.50;;;;;;5076787;28;20051;-89
2021/04/22 10:49:21;;;;;;;10.80;5.10;;;11.80;98.30;;;;;;5081692;28;20055;-89
2021/04/22 10:51:48;;;;;;;14.25;3.92;;;11.90;98.10;;;;;;5071816;28;20051;-89
2021/04/22 10:54:16;;;;;;;18.15;4.95;;;12.00;98.10;;;;;;5049760;28;20040;-89
2021/04/22 10:57:03;;;;;;;13.75;3.85;;;12.10;97.70;;;;;;5084770;28;20047;-89
2021/04/22 10:59:30;;;;;;;14.60;5.40;;;12.20;97.20;;;;;;5060165;28;20492;-89
2021/04/22 11:02:20;;;;;;;16.42;4.75;;;12.40;97.30;;;;;;5072943;28;20051;-89
2021/04/22 11:04:50;;;;;;;13.77;3.78;;;12.40;96.10;;;;;;5071035;28;20499;-89
2021/04/22 11:07:24;;;;;;;32.70;7.10;;;13.10;95.80;;;;;;5058513;28;20066;-90
2021/04/22 11:09:57;;;;;;;18.50;4.30;;;12.40;95.30;;;;;;5056381;28;20056;-89
2021/04/22 11:12:30;;;;;;;16.67;4.50;;;12.40;95.70;;;;;;5063484;28;20055;-89
2021/04/22 11:14:59;;;;;;;20.40;5.75;;;12.40;95.00;;;;;;5079462;28;20060;-90
2021/04/22 11:17:35;;;;;;;;;;;12.40;95.60;;;;;;5073659;28;20074;-89
2021/04/22 11:20:17;;;;;;;13.27;4.22;;;12.40;94.70;;;;;;5069850;28;19928;-90
2021/04/22 11:22:46;;;;;;;22.73;4.55;;;12.50;94.80;;;;;;5087593;28;20047;-90
2021/04/22 11:25:23;;;;;;;16.52;5.25;;;12.50;94.30;;;;;;5070400;28;20044;-91
2021/04/22 11:27:54;;;;;;;18.70;3.72;;;12.60;95.00;;;;;;5057447;28;20055;-89
2021/04/22 11:30:28;;;;;;;17.45;4.05;;;12.70;95.10;;;;;;5066861;28;20043;-88
2021/04/22 11:32:58;;;;;;;19.48;5.40;;;12.80;94.50;;;;;;5078528;28;20054;-92
2021/04/22 11:35:31;;;;;;;26.27;6.35;;;12.90;94.20;;;;;;5081112;28;20079;-91
2021/04/22 11:38:07;;;;;;;10.25;3.80;;;13.00;94.20;;;;;;5058336;28;20048;-88
2021/04/22 11:40:43;;;;;;;15.02;3.05;;;13.10;93.50;;;;;;5070829;28;20044;-91
2021/04/22 11:43:32;;;;;;;26.67;4.20;;;13.10;92.90;;;;;;5102663;28;20052;-91
2021/04/22 11:46:44;;;;;;;20.80;3.17;;;13.00;93.10;;;;;;5084420;28;20053;-89
2021/04/22 11:49:32;;;;;;;20.33;4.45;;;13.00;92.60;;;;;;5101233;28;20502;-91
2021/04/22 11:52:03;;;;;;;13.10;4.65;;;13.20;92.20;;;;;;5090024;28;20067;-91
2021/04/22 11:54:34;;;;;;;16.67;4.00;;;13.30;92.30;;;;;;5093942;28;20051;-89
2021/04/22 11:57:10;;;;;;;15.55;4.03;;;13.30;91.90;;;;;;5072342;28;20063;-90
2021/04/22 11:59:39;;;;;;;33.17;6.70;;;13.40;91.90;;;;;;5051964;28;20055;-91
2021/04/22 12:02:12;;;;;;;10.98;3.70;;;13.30;91.00;;;;;;5079023;28;20471;-89
2021/04/22 12:04:48;;;;;;;18.98;3.72;;;13.30;90.70;;;;;;5057687;28;20048;-90
2021/04/22 12:07:22;;;;;;;16.80;3.70;;;13.40;89.80;;;;;;5066576;28;20053;-89
2021/04/22 12:09:53;;;;;;;24.98;3.88;;;13.60;90.50;;;;;;5090048;28;20040;-89
2021/04/22 12:12:24;;;;;;;15.68;6.10;;;13.60;90.10;;;;;;5090612;28;20605;-88
2021/04/22 12:14:57;;;;;;;13.02;3.63;;;13.70;90.20;;;;;;5084230;28;20044;-89
2021/04/22 12:17:35;;;;;;;17.73;3.42;;;13.70;89.80;;;;;;5083182;28;20074;-91
2021/04/22 12:20:08;;;;;;;14.55;2.83;;;13.70;86.40;;;;;;5069300;28;20454;-90
2021/04/22 12:22:43;;;;;;;12.27;3.60;;;13.70;81.90;;;;;;5053891;28;20400;-90
2021/04/22 12:25:16;;;;;;;14.65;2.97;;;13.70;83.80;;;;;;5066302;28;20044;-89
2021/04/22 12:27:51;;;;;;;19.00;2.85;;;13.70;84.00;;;;;;5073076;28;20063;-91
2021/04/22 12:30:21;;;;;;;15.23;3.88;;;13.70;84.40;;;;;;5086353;28;20051;-90
2021/04/22 12:33:13;;;;;;;11.20;3.97;;;13.70;85.60;;;;;;5078623;28;20036;-92
2021/04/22 12:35:46;;;;;;;13.45;3.38;;;13.80;82.80;;;;;;5079088;28;20400;-90
2021/04/22 12:38:27;;;;;;;14.82;4.03;;;13.80;80.90;;;;;;5077551;28;20522;-91
2021/04/22 12:41:06;;;;;;;9.45;2.67;;;13.80;81.30;;;;;;5079565;28;20048;-92
2021/04/22 12:44:33;;;;;;;13.57;3.13;;;13.80;82.10;;;;;;5105851;28;20056;-93
2021/04/22 12:47:18;;;;;;;9.70;2.80;;;13.80;80.50;;;;;;5074164;28;20415;-92
2021/04/22 12:49:58;;;;;;;14.45;3.35;;;13.80;81.20;;;;;;5063842;28;20050;-92
2021/04/22 12:57:54;;;;;;;18.10;2.97;;;14.00;81.70;;;;;;5093676;28;20044;-92
2021/04/22 13:00:44;;;;;;;9.82;3.25;;;14.10;80.40;;;;;;5107425;28;20563;-86
2021/04/22 13:03:16;;;;;;;13.85;3.03;;;14.00;81.70;;;;;;5059981;23;20068;-87
2021/04/22 13:05:49;;;;;;;13.32;3.03;;;14.00;81.90;;;;;;5035500;28;20045;-90
2021/04/22 13:08:17;;;;;;;18.40;4.05;;;14.20;81.20;;;;;;5001767;28;20053;-89
2021/04/22 13:10:47;;;;;;;12.40;3.92;;;14.30;80.10;;;;;;5016696;28;20053;-89